Time;durP1;ratioP1;P1;durP2;ratioP2;P2;SDS_P1;SDS_P2;PMS_P1;PMS_P2;Temp;Humidity;BMP_temperature;BMP_pressure;BME280_temperature;BME280_humidity;BME280_pressure;Samples;Min_cycle;Max_cycle;Signal;HPM_P1;HPM_P2
2022/09/28 00:01:07;;;;;;;2.80;2.23;;;9.70;99.90;;;;;;5112782;28;20457;-54
2022/09/28 00:03:36;;;;;;;4.37;2.97;;;9.70;99.90;;;;;;5110702;28;20431;-56
2022/09/28 00:06:04;;;;;;;4.30;2.97;;;9.70;99.90;;;;;;5112588;28;20469;-56
2022/09/28 00:08:31;;;;;;;3.57;1.97;;;9.70;99.90;;;;;;5112635;28;20824;-54
2022/09/28 00:10:59;;;;;;;3.10;2.20;;;9.70;99.90;;;;;;5110403;28;21010;-54
2022/09/28 00:13:27;;;;;;;1.90;1.80;;;9.70;99.90;;;;;;5112510;28;20442;-54
2022/09/28 00:16:02;;;;;;;2.50;1.67;;;9.80;99.90;;;;;;5112216;28;20461;-54
2022/09/28 00:18:29;;;;;;;1.77;1.67;;;9.80;99.90;;;;;;5110962;28;20481;-54
2022/09/28 00:21:08;;;;;;;1.83;1.63;;;9.70;99.90;;;;;;5112291;28;20454;-56
2022/09/28 00:24:11;;;;;;;2.90;1.60;;;9.70;99.90;;;;;;5112553;28;20427;-56
2022/09/28 00:26:26;;;;;;;1.67;1.57;;;9.70;99.90;;;;;;5110445;28;20936;-56
2022/09/28 00:28:53;;;;;;;1.97;1.70;;;9.80;99.90;;;;;;5112072;28;20453;-54
2022/09/28 00:31:20;;;;;;;1.60;1.50;;;9.90;99.90;;;;;;5112854;28;20820;-54
2022/09/28 00:33:50;;;;;;;3.10;1.80;;;9.90;99.90;;;;;;5110588;28;20457;-54
2022/09/28 00:36:19;;;;;;;2.20;2.00;;;9.90;99.90;;;;;;5112553;28;20545;-54
2022/09/28 00:38:46;;;;;;;2.77;2.10;;;9.80;99.90;;;;;;5112738;28;20450;-56
2022/09/28 00:41:14;;;;;;;3.30;1.93;;;9.80;99.90;;;;;;5110387;28;20446;-54
2022/09/28 00:43:41;;;;;;;2.10;1.90;;;9.90;99.90;;;;;;5112127;28;20542;-54
2022/09/28 00:46:15;;;;;;;2.03;1.40;;;9.80;99.90;;;;;;5112427;28;20500;-53
2022/09/28 00:48:50;;;;;;;3.30;2.17;;;9.90;99.90;;;;;;5110444;28;20478;-54
2022/09/28 00:51:19;;;;;;;3.43;2.20;;;9.80;99.90;;;;;;5111909;28;21006;-54
2022/09/28 00:53:48;;;;;;;3.00;1.70;;;9.80;99.90;;;;;;5112311;28;20937;-56
2022/09/28 00:56:19;;;;;;;2.17;1.90;;;9.80;99.90;;;;;;5110548;28;20450;-54
2022/09/28 00:58:49;;;;;;;1.60;1.40;;;9.80;99.90;;;;;;5112576;28;20427;-54
2022/09/28 01:01:16;;;;;;;1.70;1.50;;;9.80;99.90;;;;;;5112508;28;20976;-54
2022/09/28 01:03:44;;;;;;;1.50;1.40;;;9.80;99.90;;;;;;5110014;28;20483;-55
2022/09/28 01:06:16;;;;;;;2.60;2.40;;;9.90;99.90;;;;;;5112373;28;20457;-54
2022/09/28 01:08:47;;;;;;;2.43;1.50;;;9.90;99.90;;;;;;5114756;28;20422;-54
2022/09/28 01:11:14;;;;;;;1.60;1.50;;;9.90;99.90;;;;;;5113203;28;20489;-55
2022/09/28 01:13:42;;;;;;;1.80;1.60;;;10.00;99.90;;;;;;5115913;28;20503;-55
2022/09/28 01:16:19;;;;;;;2.47;1.60;;;10.00;99.90;;;;;;5115250;28;20450;-54
2022/09/28 01:18:59;;;;;;;1.50;1.40;;;10.00;99.90;;;;;;5112467;28;20968;-55
2022/09/28 01:21:27;;;;;;;3.30;2.00;;;10.00;99.90;;;;;;5115527;28;20963;-55
2022/09/28 01:24:17;;;;;;;1.57;1.47;;;10.00;99.90;;;;;;5115925;28;20454;-55
2022/09/28 01:27:07;;;;;;;3.60;1.70;;;10.00;99.90;;;;;;5115258;28;20525;-55
2022/09/28 01:29:45;;;;;;;3.77;1.50;;;10.10;99.90;;;;;;5115440;28;20433;-54
2022/09/28 01:32:21;;;;;;;4.20;1.90;;;10.00;99.90;;;;;;5113338;28;20570;-55
2022/09/28 01:34:56;;;;;;;1.73;1.37;;;10.10;99.90;;;;;;5115284;28;20431;-54
2022/09/28 01:37:28;;;;;;;2.27;1.50;;;10.10;99.90;;;;;;5115534;28;20427;-55
2022/09/28 01:39:58;;;;;;;7.30;1.70;;;10.20;99.90;;;;;;5113159;28;20434;-54
2022/09/28 01:42:30;;;;;;;1.80;1.60;;;10.20;99.90;;;;;;5115390;28;20467;-55
2022/09/28 01:45:04;;;;;;;2.37;1.73;;;10.10;99.90;;;;;;5115130;28;20431;-55
2022/09/28 01:47:36;;;;;;;2.90;1.47;;;10.10;99.90;;;;;;5112606;28;20894;-54
2022/09/28 01:50:10;;;;;;;3.20;1.80;;;10.20;99.90;;;;;;5114348;28;20470;-54
2022/09/28 01:52:44;;;;;;;3.70;1.63;;;10.20;99.90;;;;;;5115100;28;20483;-54
2022/09/28 01:55:14;;;;;;;5.27;2.53;;;10.20;99.90;;;;;;5113145;28;20429;-54
2022/09/28 01:57:47;;;;;;;2.00;1.60;;;10.20;99.90;;;;;;5115483;28;20438;-54
2022/09/28 02:00:18;;;;;;;3.30;1.97;;;10.30;99.90;;;;;;5115290;28;20541;-55
2022/09/28 02:02:49;;;;;;;2.70;1.67;;;10.30;99.90;;;;;;5112686;28;20476;-54
2022/09/28 02:05:20;;;;;;;3.53;1.60;;;10.30;99.90;;;;;;5114834;28;20458;-54
2022/09/28 02:07:56;;;;;;;3.00;2.10;;;10.40;99.90;;;;;;5114558;28;20435;-54
2022/09/28 02:10:26;;;;;;;4.10;2.17;;;10.40;99.90;;;;;;5113101;28;20427;-54
2022/09/28 02:12:59;;;;;;;3.97;2.70;;;10.40;99.90;;;;;;5114924;28;20486;-54
2022/09/28 02:15:33;;;;;;;4.30;2.33;;;10.40;99.90;;;;;;5114472;28;20427;-54
2022/09/28 02:18:00;;;;;;;3.87;1.90;;;10.40;99.90;;;;;;5112577;28;20442;-55
2022/09/28 02:20:32;;;;;;;4.10;1.63;;;10.40;99.90;;;;;;5114350;28;20976;-54
2022/09/28 02:23:01;;;;;;;5.73;1.73;;;10.40;99.90;;;;;;5114061;28;20473;-54
2022/09/28 02:25:34;;;;;;;2.47;1.63;;;10.40;99.90;;;;;;5112369;28;20550;-54
2022/09/28 02:28:05;;;;;;;1.60;1.50;;;10.40;99.90;;;;;;5114479;27;20940;-54
2022/09/28 02:30:35;;;;;;;1.73;1.63;;;10.50;99.90;;;;;;5114218;28;20454;-54
2022/09/28 02:33:08;;;;;;;4.63;2.20;;;10.50;99.90;;;;;;5112683;28;20493;-54
2022/09/28 02:35:37;;;;;;;3.60;2.10;;;10.50;99.90;;;;;;5114165;28;20442;-54
2022/09/28 02:38:04;;;;;;;4.60;1.83;;;10.50;99.90;;;;;;5113725;28;20811;-54
2022/09/28 02:40:36;;;;;;;3.80;1.83;;;10.50;99.90;;;;;;5113946;28;20446;-54
2022/09/28 02:43:14;;;;;;;5.90;2.10;;;10.50;99.90;;;;;;5114211;28;20463;-56
2022/09/28 02:46:04;;;;;;;1.80;1.53;;;10.50;99.90;;;;;;5111801;28;20433;-54
2022/09/28 02:48:53;;;;;;;8.23;2.10;;;10.60;99.90;;;;;;5112797;28;20794;-54
2022/09/28 02:51:27;;;;;;;2.60;1.80;;;10.60;99.90;;;;;;5113662;28;20489;-54
2022/09/28 02:54:23;;;;;;;2.90;1.83;;;10.60;99.90;;;;;;5111925;28;20901;-54
2022/09/28 02:57:02;;;;;;;2.03;1.83;;;10.40;99.90;;;;;;5114015;27;20940;-54
2022/09/28 02:59:48;;;;;;;2.43;1.90;;;10.60;99.90;;;;;;5113497;28;20437;-54
2022/09/28 03:02:26;;;;;;;4.20;1.93;;;10.50;99.90;;;;;;5111814;28;20541;-55
2022/09/28 03:05:07;;;;;;;3.60;1.83;;;10.40;99.90;;;;;;5113343;28;20438;-55
2022/09/28 03:07:38;;;;;;;5.83;2.07;;;10.50;99.90;;;;;;5113623;28;20427;-55
2022/09/28 03:10:13;;;;;;;2.20;2.00;;;10.50;99.90;;;;;;5112098;28;20457;-54
2022/09/28 03:12:41;;;;;;;3.30;1.70;;;10.50;99.90;;;;;;5113548;28;20521;-55
2022/09/28 03:15:14;;;;;;;2.80;1.93;;;10.60;99.90;;;;;;5111748;28;20932;-54
2022/09/28 03:17:41;;;;;;;7.67;2.13;;;10.60;99.90;;;;;;5113383;28;20415;-55
2022/09/28 03:20:11;;;;;;;4.23;2.20;;;10.70;99.90;;;;;;5113592;28;20537;-54
2022/09/28 03:22:38;;;;;;;2.37;1.63;;;10.60;99.90;;;;;;5111776;28;20469;-54
2022/09/28 03:25:07;;;;;;;3.50;1.70;;;10.60;99.90;;;;;;5113415;28;20446;-54
2022/09/28 03:27:34;;;;;;;4.93;2.30;;;10.60;99.90;;;;;;5113315;28;20451;-54
2022/09/28 03:30:02;;;;;;;2.90;1.80;;;10.50;99.90;;;;;;5111054;28;20454;-55
2022/09/28 03:32:30;;;;;;;4.73;1.90;;;10.50;99.90;;;;;;5112733;28;20483;-55
2022/09/28 03:34:57;;;;;;;8.10;3.13;;;10.50;99.90;;;;;;5113000;28;20450;-54
2022/09/28 03:37:24;;;;;;;1.87;1.70;;;10.60;99.90;;;;;;5111464;28;20442;-55
2022/09/28 03:39:51;;;;;;;4.83;2.17;;;10.50;99.90;;;;;;5112794;28;20541;-55
2022/09/28 03:42:19;;;;;;;4.70;2.77;;;10.60;99.90;;;;;;5113234;28;20465;-55
2022/09/28 03:44:46;;;;;;;3.30;1.90;;;10.60;99.90;;;;;;5111176;28;20423;-55
2022/09/28 03:47:14;;;;;;;7.23;2.30;;;10.60;99.90;;;;;;5112547;28;20446;-55
2022/09/28 03:49:44;;;;;;;3.90;2.17;;;10.60;99.90;;;;;;5112611;28;20482;-55
2022/09/28 03:52:11;;;;;;;5.90;2.03;;;10.60;99.90;;;;;;5110920;28;20492;-55
2022/09/28 03:54:39;;;;;;;2.37;1.70;;;10.60;99.90;;;;;;5112827;28;20449;-55
2022/09/28 03:57:06;;;;;;;5.10;1.73;;;10.70;99.90;;;;;;5112893;28;20787;-56
2022/09/28 03:59:36;;;;;;;3.43;1.90;;;10.70;99.90;;;;;;5111310;28;20474;-55
2022/09/28 04:02:04;;;;;;;2.80;1.70;;;10.70;99.90;;;;;;5112758;28;20823;-55
2022/09/28 04:04:31;;;;;;;5.00;1.80;;;10.60;99.90;;;;;;5112977;28;20526;-55
2022/09/28 04:07:00;;;;;;;6.97;2.83;;;10.50;99.90;;;;;;5110949;28;20810;-55
2022/09/28 04:09:27;;;;;;;3.30;1.60;;;10.50;99.90;;;;;;5112740;28;20449;-55
2022/09/28 04:11:54;;;;;;;3.60;1.73;;;10.50;99.90;;;;;;5112383;28;20487;-55
2022/09/28 04:14:22;;;;;;;2.43;1.53;;;10.40;99.90;;;;;;5111160;28;20503;-55
2022/09/28 04:16:53;;;;;;;3.47;1.30;;;10.20;99.90;;;;;;5112136;28;20449;-55
2022/09/28 04:19:20;;;;;;;5.47;1.60;;;10.20;99.90;;;;;;5112573;28;20422;-55
2022/09/28 04:21:49;;;;;;;2.30;1.40;;;10.10;99.90;;;;;;5110190;28;20520;-55
2022/09/28 04:24:19;;;;;;;1.80;1.40;;;10.10;99.90;;;;;;5112529;28;20514;-55
2022/09/28 04:26:46;;;;;;;2.53;1.63;;;10.00;99.90;;;;;;5112531;28;20442;-54
2022/09/28 04:29:15;;;;;;;1.70;1.60;;;10.10;99.90;;;;;;5110200;28;20461;-55
2022/09/28 04:31:44;;;;;;;1.60;1.50;;;10.10;99.90;;;;;;5112658;28;20538;-55
2022/09/28 04:34:12;;;;;;;1.63;1.30;;;10.20;99.90;;;;;;5112775;28;20461;-55
2022/09/28 04:36:39;;;;;;;3.97;1.60;;;10.10;99.90;;;;;;5110250;28;20477;-55
2022/09/28 04:39:06;;;;;;;2.33;1.47;;;10.10;99.90;;;;;;5112348;28;20458;-55
2022/09/28 04:41:35;;;;;;;1.30;1.20;;;10.10;99.90;;;;;;5113160;28;20462;-55
2022/09/28 04:44:03;;;;;;;1.87;1.40;;;10.10;99.90;;;;;;5113978;28;20452;-55
2022/09/28 04:46:30;;;;;;;1.60;1.50;;;10.10;99.90;;;;;;5115952;28;20437;-55
2022/09/28 04:48:57;;;;;;;3.63;2.00;;;10.10;99.90;;;;;;5116251;28;20878;-55
2022/09/28 04:51:24;;;;;;;1.40;1.27;;;10.00;99.90;;;;;;5114031;28;20466;-55
2022/09/28 04:53:52;;;;;;;2.13;1.30;;;10.00;99.90;;;;;;5116048;28;20478;-55
2022/09/28 04:56:19;;;;;;;1.63;1.50;;;9.90;99.90;;;;;;5115930;28;20523;-55
2022/09/28 04:58:48;;;;;;;5.00;1.80;;;9.80;99.90;;;;;;5114057;28;20426;-55
2022/09/28 05:01:17;;;;;;;1.40;1.30;;;9.80;99.90;;;;;;5116359;28;20474;-55
2022/09/28 05:03:44;;;;;;;2.30;1.67;;;9.80;99.90;;;;;;5116091;28;20442;-55
2022/09/28 05:06:14;;;;;;;2.07;1.47;;;9.90;99.90;;;;;;5113886;28;20545;-55
2022/09/28 05:08:42;;;;;;;2.03;1.83;;;9.90;99.90;;;;;;5116404;28;20442;-55
2022/09/28 05:11:12;;;;;;;3.63;1.40;;;9.90;99.90;;;;;;5115354;28;20446;-55
2022/09/28 05:13:44;;;;;;;3.30;1.67;;;9.90;99.90;;;;;;5114289;28;20484;-55
2022/09/28 05:16:14;;;;;;;2.90;1.50;;;9.90;99.90;;;;;;5115436;28;20537;-55
2022/09/28 05:18:41;;;;;;;4.20;1.67;;;9.80;99.90;;;;;;5115663;28;20838;-55
2022/09/28 05:21:13;;;;;;;4.17;1.90;;;9.90;99.90;;;;;;5113480;28;20436;-55
2022/09/28 05:23:41;;;;;;;1.70;1.50;;;9.80;99.90;;;;;;5115490;28;20446;-55
2022/09/28 05:26:08;;;;;;;2.67;1.60;;;9.80;99.90;;;;;;5114612;28;20851;-55
2022/09/28 05:28:35;;;;;;;2.17;1.63;;;9.80;99.90;;;;;;5113552;28;20881;-55
2022/09/28 05:31:04;;;;;;;1.60;1.50;;;9.80;99.90;;;;;;5115019;28;20485;-55
2022/09/28 05:33:33;;;;;;;3.90;1.60;;;9.70;99.90;;;;;;5113933;28;20506;-55
2022/09/28 05:36:00;;;;;;;1.80;1.50;;;9.80;99.90;;;;;;5112368;28;20876;-55
2022/09/28 05:38:28;;;;;;;2.63;1.50;;;9.80;99.90;;;;;;5113693;28;20453;-55
2022/09/28 05:40:55;;;;;;;1.93;1.50;;;9.80;99.90;;;;;;5113114;28;20499;-55
2022/09/28 05:43:23;;;;;;;6.37;1.73;;;9.80;99.90;;;;;;5112441;28;20854;-55
2022/09/28 05:45:50;;;;;;;5.63;2.23;;;9.80;99.90;;;;;;5113761;28;20446;-55
2022/09/28 05:48:17;;;;;;;3.87;2.10;;;9.80;99.90;;;;;;5113514;28;20449;-55
2022/09/28 05:50:51;;;;;;;1.77;1.40;;;9.80;99.90;;;;;;5111560;28;20968;-55
2022/09/28 05:53:18;;;;;;;4.30;1.97;;;9.90;99.90;;;;;;5113203;28;20490;-55
2022/09/28 05:55:45;;;;;;;2.50;1.70;;;9.80;99.90;;;;;;5113689;28;20442;-55
2022/09/28 05:58:12;;;;;;;4.40;2.33;;;9.80;99.90;;;;;;5112157;28;20996;-55
2022/09/28 06:00:39;;;;;;;5.33;1.40;;;9.80;99.90;;;;;;5113553;28;20450;-55
2022/09/28 06:03:08;;;;;;;5.40;1.80;;;9.80;99.90;;;;;;5113778;28;20481;-55
2022/09/28 06:05:36;;;;;;;4.37;1.90;;;9.80;99.90;;;;;;5111494;28;20478;-55
2022/09/28 06:08:07;;;;;;;2.00;1.80;;;9.80;99.90;;;;;;5113707;28;20444;-55
2022/09/28 06:10:34;;;;;;;5.30;2.03;;;9.80;99.90;;;;;;5113521;28;20924;-55
2022/09/28 06:13:01;;;;;;;2.37;1.60;;;9.70;99.90;;;;;;5111089;28;20581;-55
2022/09/28 06:15:31;;;;;;;1.93;1.80;;;9.70;99.90;;;;;;5113605;28;20453;-55
2022/09/28 06:17:58;;;;;;;6.67;1.90;;;9.80;99.90;;;;;;5113591;28;20449;-54
2022/09/28 06:20:27;;;;;;;8.33;2.77;;;9.80;99.90;;;;;;5110758;28;20672;-55
2022/09/28 06:22:54;;;;;;;3.00;2.30;;;9.90;99.90;;;;;;5113274;28;20458;-55
2022/09/28 06:25:24;;;;;;;4.57;2.13;;;9.90;99.90;;;;;;5113116;28;20442;-55
2022/09/28 06:27:56;;;;;;;4.20;2.23;;;9.80;99.90;;;;;;5111343;28;21236;-55
2022/09/28 06:30:25;;;;;;;4.13;2.00;;;9.90;99.90;;;;;;5113163;28;20549;-55
2022/09/28 06:32:55;;;;;;;2.17;1.80;;;9.90;99.90;;;;;;5112958;28;20482;-54
2022/09/28 06:35:23;;;;;;;2.00;1.77;;;10.00;99.90;;;;;;5110936;28;20455;-55
2022/09/28 06:37:51;;;;;;;2.70;2.13;;;10.00;99.90;;;;;;5113202;28;20504;-55
2022/09/28 06:40:18;;;;;;;3.13;2.03;;;10.00;99.90;;;;;;5112201;28;20437;-55
2022/09/28 06:42:55;;;;;;;3.63;2.70;;;10.00;99.90;;;;;;5110761;28;20523;-54
2022/09/28 06:45:29;;;;;;;3.20;2.27;;;10.00;99.90;;;;;;5112848;28;20547;-55
2022/09/28 06:47:57;;;;;;;5.17;2.50;;;10.10;99.90;;;;;;5111955;28;20442;-55
2022/09/28 06:50:25;;;;;;;2.23;2.03;;;10.10;99.90;;;;;;5109446;28;20502;-55
2022/09/28 06:52:53;;;;;;;3.70;1.83;;;10.20;99.90;;;;;;5111272;28;20482;-55
2022/09/28 06:55:20;;;;;;;6.60;2.67;;;10.20;99.90;;;;;;5112015;28;20480;-55
2022/09/28 06:57:58;;;;;;;3.60;2.30;;;10.40;99.90;;;;;;5110435;28;20503;-55
2022/09/28 07:00:25;;;;;;;2.20;2.00;;;10.30;99.90;;;;;;5111794;28;20458;-55
2022/09/28 07:02:52;;;;;;;3.70;2.33;;;10.20;99.90;;;;;;5112301;28;20458;-55
2022/09/28 07:05:26;;;;;;;4.97;2.83;;;10.20;99.90;;;;;;5110066;28;20933;-55
2022/09/28 07:07:55;;;;;;;4.60;2.30;;;10.30;99.90;;;;;;5113204;28;20604;-55
2022/09/28 07:10:23;;;;;;;3.40;2.53;;;10.30;99.90;;;;;;5113366;28;20438;-55
2022/09/28 07:12:52;;;;;;;3.90;2.80;;;10.30;99.90;;;;;;5111289;28;20474;-55
2022/09/28 07:15:20;;;;;;;3.40;2.60;;;10.20;99.90;;;;;;5113144;28;20478;-55
2022/09/28 07:17:47;;;;;;;4.30;2.67;;;10.20;99.90;;;;;;5113565;28;20453;-55
2022/09/28 07:20:15;;;;;;;4.83;2.60;;;10.30;99.90;;;;;;5111264;28;21012;-54
2022/09/28 07:22:43;;;;;;;5.00;2.83;;;10.30;99.90;;;;;;5112851;28;20999;-55
2022/09/28 07:25:11;;;;;;;3.23;3.00;;;10.40;99.90;;;;;;5113068;27;20452;-55
2022/09/28 07:27:38;;;;;;;4.30;3.00;;;10.50;99.90;;;;;;5111166;28;20458;-54
2022/09/28 07:30:08;;;;;;;4.17;3.00;;;10.40;99.90;;;;;;5113231;28;20461;-55
2022/09/28 07:32:36;;;;;;;8.90;2.93;;;10.40;99.90;;;;;;5112732;28;20462;-55
2022/09/28 07:35:07;;;;;;;6.53;2.80;;;10.50;99.90;;;;;;5111003;28;20443;-55
2022/09/28 07:37:35;;;;;;;4.63;2.83;;;10.50;99.90;;;;;;5112986;28;20431;-55
2022/09/28 07:42:47;;;;;;;2.90;2.70;;;10.70;99.90;;;;;;5110612;28;20523;-55
2022/09/28 07:45:16;;;;;;;4.60;2.90;;;10.60;99.90;;;;;;5112522;28;20447;-55
2022/09/28 07:47:45;;;;;;;9.43;3.00;;;10.70;99.90;;;;;;5112929;28;20525;-55
2022/09/28 07:50:12;;;;;;;5.70;2.60;;;10.60;99.90;;;;;;5110163;28;20564;-55
2022/09/28 07:52:39;;;;;;;2.50;2.30;;;10.60;99.90;;;;;;5112494;28;20470;-55
2022/09/28 07:55:08;;;;;;;4.00;2.73;;;10.60;99.90;;;;;;5112634;28;20446;-54
2022/09/28 07:57:35;;;;;;;6.33;2.50;;;10.70;99.90;;;;;;5110467;28;20452;-55
2022/09/28 08:00:05;;;;;;;5.70;2.70;;;10.80;99.90;;;;;;5112975;28;20438;-55
2022/09/28 08:02:34;;;;;;;2.97;2.37;;;10.90;99.90;;;;;;5112429;28;20553;-57
2022/09/28 08:05:02;;;;;;;4.97;2.63;;;11.00;99.90;;;;;;5110907;28;20474;-55
2022/09/28 08:07:29;;;;;;;4.23;2.40;;;11.10;99.90;;;;;;5112465;28;20450;-55
2022/09/28 08:09:56;;;;;;;2.53;2.33;;;11.10;99.90;;;;;;5112613;28;20442;-55
2022/09/28 08:12:23;;;;;;;2.90;2.30;;;11.10;99.90;;;;;;5110718;28;20470;-55
2022/09/28 08:14:51;;;;;;;4.70;2.77;;;11.10;99.90;;;;;;5112310;28;20498;-55
2022/09/28 08:17:18;;;;;;;2.90;2.70;;;11.10;99.90;;;;;;5114438;28;20532;-55
2022/09/28 08:22:32;;;;;;;5.67;2.53;;;11.20;99.90;;;;;;5116724;28;20592;-55
2022/09/28 08:24:59;;;;;;;3.10;2.50;;;11.10;99.90;;;;;;5116316;28;20477;-56
2022/09/28 08:27:26;;;;;;;4.20;3.37;;;11.20;99.90;;;;;;5114957;28;20442;-55
2022/09/28 08:29:53;;;;;;;4.57;3.00;;;11.30;99.90;;;;;;5116416;28;20456;-55
2022/09/28 08:32:20;;;;;;;2.77;2.57;;;11.20;99.90;;;;;;5116449;28;20473;-55
2022/09/28 08:34:49;;;;;;;6.60;2.70;;;11.40;99.90;;;;;;5114241;28;20478;-56
2022/09/28 08:37:16;;;;;;;3.60;2.60;;;11.60;99.90;;;;;;5116468;28;20449;-55
2022/09/28 08:39:43;;;;;;;3.70;3.00;;;11.60;99.90;;;;;;5116288;28;20548;-56
2022/09/28 08:42:31;;;;;;;2.63;2.43;;;11.80;99.90;;;;;;5114332;28;20468;-56
2022/09/28 08:45:06;;;;;;;6.10;3.03;;;12.10;99.90;;;;;;5116229;28;20434;-55
2022/09/28 08:50:38;;;;;;;4.10;2.30;;;12.20;99.90;;;;;;5114733;28;20469;-55
2022/09/28 08:53:30;;;;;;;2.90;2.40;;;12.30;99.90;;;;;;5116258;28;20465;-55
2022/09/28 08:55:59;;;;;;;3.77;2.60;;;12.10;99.90;;;;;;5113830;28;20435;-56
2022/09/28 08:58:32;;;;;;;4.90;2.50;;;12.10;99.90;;;;;;5116377;28;20496;-55
2022/09/28 09:01:03;;;;;;;3.60;2.60;;;11.90;99.90;;;;;;5116360;28;20454;-55
2022/09/28 09:03:32;;;;;;;4.40;2.70;;;11.60;99.90;;;;;;5113827;28;20442;-55
2022/09/28 09:06:14;;;;;;;4.63;2.57;;;11.70;99.90;;;;;;5115788;28;20545;-55
2022/09/28 09:08:52;;;;;;;3.60;2.53;;;11.70;99.90;;;;;;5115728;28;20434;-55
2022/09/28 09:11:33;;;;;;;5.03;2.80;;;11.70;99.90;;;;;;5113547;28;21026;-55
2022/09/28 09:14:33;;;;;;;4.07;2.50;;;11.80;99.90;;;;;;5116094;28;20466;-56
2022/09/28 09:17:06;;;;;;;3.23;2.77;;;11.90;99.90;;;;;;5115537;28;20921;-56
2022/09/28 09:19:41;;;;;;;5.10;3.13;;;11.90;99.90;;;;;;5113632;28;20916;-56
2022/09/28 09:22:16;;;;;;;2.60;2.40;;;12.10;99.90;;;;;;5115647;28;20456;-55
2022/09/28 09:24:49;;;;;;;4.73;2.93;;;12.20;99.90;;;;;;5115137;28;20770;-56
2022/09/28 09:27:35;;;;;;;6.30;2.70;;;12.10;99.90;;;;;;5113800;28;20423;-55
2022/09/28 09:30:10;;;;;;;6.20;2.83;;;12.30;99.90;;;;;;5114594;28;20544;-56
2022/09/28 09:32:55;;;;;;;4.87;2.70;;;12.20;99.90;;;;;;5112791;28;20439;-55
2022/09/28 09:35:38;;;;;;;4.83;3.00;;;12.10;99.90;;;;;;5115352;28;20464;-56
2022/09/28 09:38:26;;;;;;;2.43;2.23;;;12.30;99.90;;;;;;5114830;28;20442;-56
2022/09/28 09:41:06;;;;;;;4.43;2.87;;;12.40;99.90;;;;;;5113335;28;20925;-56
2022/09/28 09:43:57;;;;;;;7.27;2.63;;;12.50;99.90;;;;;;5114915;28;20428;-55
2022/09/28 09:46:33;;;;;;;2.80;2.53;;;12.60;99.90;;;;;;5115406;28;20427;-56
2022/09/28 09:49:08;;;;;;;7.20;3.20;;;12.70;99.90;;;;;;5112890;28;20474;-55
2022/09/28 09:51:42;;;;;;;4.40;2.80;;;12.60;99.90;;;;;;5114918;28;20502;-55
2022/09/28 09:54:18;;;;;;;4.20;2.93;;;12.70;99.90;;;;;;5115099;28;20505;-55
2022/09/28 09:56:52;;;;;;;3.63;2.67;;;12.90;99.90;;;;;;5113129;28;20426;-55
2022/09/28 09:59:23;;;;;;;7.17;2.80;;;12.80;99.90;;;;;;5114236;28;20969;-55
2022/09/28 10:01:52;;;;;;;3.10;2.70;;;13.00;99.90;;;;;;5114941;28;20462;-56
2022/09/28 10:04:23;;;;;;;7.37;2.53;;;13.00;99.90;;;;;;5112905;28;20454;-56
2022/09/28 10:06:56;;;;;;;5.87;3.30;;;13.00;99.90;;;;;;5114485;28;20427;-55
2022/09/28 10:09:30;;;;;;;3.30;3.00;;;13.10;99.90;;;;;;5114705;28;20878;-55
2022/09/28 10:11:57;;;;;;;5.90;3.43;;;13.10;99.90;;;;;;5112987;28;20462;-55
2022/09/28 10:14:25;;;;;;;4.00;3.70;;;13.20;99.90;;;;;;5113259;28;20565;-57
2022/09/28 10:16:57;;;;;;;3.27;2.80;;;13.20;99.90;;;;;;5114219;28;20533;-56
2022/09/28 10:19:31;;;;;;;4.70;2.97;;;13.10;99.90;;;;;;5113660;28;20416;-56
2022/09/28 10:22:01;;;;;;;4.07;2.97;;;13.00;99.90;;;;;;5113770;28;20488;-55
2022/09/28 10:24:33;;;;;;;4.23;3.20;;;12.90;99.90;;;;;;5111905;28;20798;-55
2022/09/28 10:27:06;;;;;;;3.70;2.73;;;13.00;99.90;;;;;;5113722;28;20522;-56
2022/09/28 10:29:43;;;;;;;8.00;3.30;;;13.10;99.90;;;;;;5114510;28;20427;-55
2022/09/28 10:32:20;;;;;;;3.63;3.33;;;13.10;99.90;;;;;;5111737;28;20462;-55
2022/09/28 10:34:47;;;;;;;6.80;3.80;;;13.20;99.90;;;;;;5112967;28;20468;-55
2022/09/28 10:37:15;;;;;;;5.07;2.73;;;13.00;99.90;;;;;;5113724;28;20447;-55
2022/09/28 10:39:47;;;;;;;3.30;2.90;;;12.90;99.90;;;;;;5110091;28;20442;-57
2022/09/28 10:42:21;;;;;;;4.70;3.53;;;12.80;99.90;;;;;;5112865;28;20462;-55
2022/09/28 10:44:56;;;;;;;4.70;2.83;;;13.00;99.90;;;;;;5112483;28;20423;-55
2022/09/28 10:47:26;;;;;;;6.73;2.90;;;13.20;99.90;;;;;;5110441;28;20701;-55
2022/09/28 10:49:55;;;;;;;4.63;3.13;;;13.30;99.90;;;;;;5112077;28;20480;-55
2022/09/28 10:52:35;;;;;;;3.83;2.33;;;13.60;99.90;;;;;;5112166;28;20519;-56
2022/09/28 10:55:25;;;;;;;3.67;2.40;;;13.50;99.90;;;;;;5110020;28;20536;-55
2022/09/28 10:57:52;;;;;;;5.03;2.90;;;13.50;99.90;;;;;;5113130;28;20473;-55
2022/09/28 11:00:40;;;;;;;5.33;2.70;;;13.50;99.90;;;;;;5113425;28;20500;-57
2022/09/28 11:03:23;;;;;;;5.00;2.73;;;13.50;99.90;;;;;;5111391;28;20531;-54
2022/09/28 11:05:55;;;;;;;2.77;2.47;;;13.60;99.90;;;;;;5113644;28;20490;-57
2022/09/28 11:08:27;;;;;;;3.10;2.50;;;13.50;99.90;;;;;;5113198;28;20447;-57
2022/09/28 11:11:10;;;;;;;5.97;2.80;;;13.40;99.90;;;;;;5110938;28;20434;-54
2022/09/28 11:13:46;;;;;;;5.00;2.67;;;13.50;99.90;;;;;;5112699;28;20435;-55
2022/09/28 11:16:26;;;;;;;4.27;2.57;;;13.40;99.90;;;;;;5110968;28;20423;-56
2022/09/28 11:18:53;;;;;;;2.50;2.30;;;13.70;99.90;;;;;;5113185;28;20793;-54
2022/09/28 11:21:24;;;;;;;3.43;2.60;;;13.60;99.90;;;;;;5113520;28;20492;-54
2022/09/28 11:24:04;;;;;;;3.33;2.50;;;13.50;99.90;;;;;;5110556;28;21089;-55
2022/09/28 11:26:39;;;;;;;4.43;2.40;;;13.60;99.90;;;;;;5112876;28;20422;-56
2022/09/28 11:29:18;;;;;;;5.60;3.50;;;13.70;99.90;;;;;;5111907;28;20427;-56
2022/09/28 11:31:46;;;;;;;2.97;2.60;;;13.90;99.90;;;;;;5108875;28;20556;-56
2022/09/28 11:34:20;;;;;;;3.00;2.40;;;14.10;99.90;;;;;;5113047;28;20962;-56
2022/09/28 11:37:06;;;;;;;17.57;11.67;;;14.30;99.90;;;;;;5112499;28;20889;-55
2022/09/28 11:39:44;;;;;;;5.47;3.60;;;14.20;99.90;;;;;;5111036;28;20802;-55
2022/09/28 11:42:24;;;;;;;26.20;15.83;;;14.00;99.90;;;;;;5112679;28;20467;-55
2022/09/28 11:45:00;;;;;;;20.47;11.40;;;14.00;99.90;;;;;;5112535;28;20433;-55
2022/09/28 11:47:46;;;;;;;3.53;2.77;;;14.00;99.90;;;;;;5110754;28;20533;-55
2022/09/28 11:50:29;;;;;;;3.40;2.40;;;14.00;99.90;;;;;;5111789;28;20474;-55
2022/09/28 11:53:03;;;;;;;2.80;2.43;;;14.30;99.90;;;;;;5110583;28;20835;-55
2022/09/28 11:55:38;;;;;;;3.50;2.60;;;14.90;99.90;;;;;;5111195;28;20464;-56
2022/09/28 11:58:13;;;;;;;7.27;3.20;;;14.90;99.90;;;;;;5112066;28;20464;-55
2022/09/28 12:00:45;;;;;;;5.77;2.53;;;15.40;99.90;;;;;;5110023;28;20464;-55
2022/09/28 12:03:18;;;;;;;3.93;2.10;;;15.70;99.90;;;;;;5112480;28;20952;-55
2022/09/28 12:05:49;;;;;;;4.30;2.00;;;15.80;99.90;;;;;;5112465;28;20445;-55
2022/09/28 12:08:24;;;;;;;3.60;1.90;;;16.10;99.90;;;;;;5110307;28;20996;-55
2022/09/28 12:10:56;;;;;;;3.53;1.93;;;16.30;99.90;;;;;;5112927;28;20480;-55
2022/09/28 12:13:27;;;;;;;5.97;2.03;;;16.30;99.90;;;;;;5111501;28;20423;-55
2022/09/28 12:15:59;;;;;;;6.27;2.20;;;16.10;99.90;;;;;;5109504;28;20780;-55
2022/09/28 12:18:35;;;;;;;2.07;1.87;;;15.60;99.90;;;;;;5111512;28;20453;-55
2022/09/28 12:21:12;;;;;;;3.67;2.00;;;15.30;99.90;;;;;;5110953;28;20897;-56
2022/09/28 12:23:42;;;;;;;3.30;1.80;;;15.20;99.90;;;;;;5109367;28;20793;-55
2022/09/28 12:26:26;;;;;;;2.40;2.20;;;15.50;99.90;;;;;;5110806;28;20446;-56
2022/09/28 12:28:58;;;;;;;3.33;2.00;;;15.70;99.90;;;;;;5110631;28;20514;-55
2022/09/28 12:31:32;;;;;;;2.80;1.73;;;15.90;99.90;;;;;;5109137;28;20528;-54
2022/09/28 12:33:59;;;;;;;4.10;1.90;;;15.60;99.90;;;;;;5110843;28;20430;-55
2022/09/28 12:36:44;;;;;;;1.90;1.70;;;15.80;99.90;;;;;;5111170;28;20435;-55
2022/09/28 12:39:36;;;;;;;4.03;2.00;;;15.50;99.90;;;;;;5108386;28;20407;-54
2022/09/28 12:42:16;;;;;;;3.67;2.03;;;15.20;99.90;;;;;;5110282;28;20462;-55
2022/09/28 12:45:16;;;;;;;4.20;2.23;;;15.30;99.90;;;;;;5111334;28;20448;-55
2022/09/28 12:48:11;;;;;;;2.53;1.50;;;15.40;99.90;;;;;;5110826;28;20498;-54
2022/09/28 12:50:42;;;;;;;7.87;3.03;;;15.40;99.90;;;;;;5110742;28;20493;-56
2022/09/28 12:53:30;;;;;;;2.47;1.80;;;15.50;99.90;;;;;;5108847;28;20479;-56
2022/09/28 12:56:02;;;;;;;2.17;1.57;;;15.40;99.90;;;;;;5110361;28;20473;-56
2022/09/28 12:58:47;;;;;;;3.20;2.53;;;15.30;99.90;;;;;;5111600;28;20428;-56
2022/09/28 13:01:35;;;;;;;1.90;1.80;;;15.10;99.90;;;;;;5109412;28;20830;-56
2022/09/28 13:04:26;;;;;;;2.97;1.63;;;15.10;99.90;;;;;;5113839;28;20493;-56
2022/09/28 13:07:00;;;;;;;4.20;2.20;;;15.30;99.90;;;;;;5097609;28;20714;-57
2022/09/28 13:09:33;;;;;;;3.10;1.70;;;15.20;99.90;;;;;;5113377;28;20792;-56
2022/09/28 13:12:13;;;;;;;2.30;1.87;;;15.00;99.90;;;;;;5114379;28;20470;-56
2022/09/28 13:15:08;;;;;;;2.80;2.10;;;14.80;99.90;;;;;;5112450;28;20473;-56
2022/09/28 13:17:48;;;;;;;2.90;1.60;;;15.00;99.90;;;;;;5114366;28;20459;-56
2022/09/28 13:20:31;;;;;;;4.00;2.27;;;15.00;99.90;;;;;;5114440;28;20410;-56
2022/09/28 13:23:11;;;;;;;2.60;1.90;;;15.10;99.90;;;;;;5111964;28;20458;-56